M I D A S
Marine Information and Data Acquisition System
Tripno 1341 of the Zeeleeuw from 2007-04-04 06:48:28 to 2007-04-04 10:23:54
Back to CruiseResearch ActivitiesStationsMapUnderway DataData graphs

EquipmentUnitsComment
TimeDGPSUTC
LatitudeDGPSDM.mWGS84
LongitudeDGPSDM.mWGS84
HeadingGyrodeg 
SOGDGPSknotsSpeed over ground
COGDGPSdegCourse over ground
DepthEcho soundermeters200 kHz
Missing or incorrect values are displayed as -999
Navigation data collected by the RV Zeeleeuw from 2007-04-04 06:29:56 to 2007-04-04 15:23:51
                                                                                    Next 1000 lines
Time Latitude Longitude Heading SOG COG Depth
2007-04-04 06:30:06 51°13.602 2°56.096 114.2 0.7 299 -999
2007-04-04 06:30:10 51°13.603 2°56.094 114.1 1 287 -999
2007-04-04 06:30:16 51°13.603 2°56.091 114 1.4 291 -999
2007-04-04 06:30:21 51°13.604 2°56.087 114 1.8 290 -999
2007-04-04 06:30:26 51°13.605 2°56.083 114.4 2.2 292 -999
2007-04-04 06:30:30 51°13.607 2°56.079 114.9 2.6 292 -999
2007-04-04 06:30:35 51°13.608 2°56.073 115.6 2.9 292 -999
2007-04-04 06:30:40 51°13.61 2°56.066 116.5 3.2 296 -999
2007-04-04 06:30:46 51°13.612 2°56.058 117.1 3.5 296 -999
2007-04-04 06:30:51 51°13.615 2°56.051 117.5 3.7 297 -999
2007-04-04 06:30:55 51°13.617 2°56.044 117.6 4 296 -999
2007-04-04 06:31:00 51°13.619 2°56.036 117.5 4.2 295 -999
2007-04-04 06:31:06 51°13.622 2°56.026 116.6 4.2 294 -999
2007-04-04 06:31:11 51°13.624 2°56.017 115.4 4.3 293 -999
2007-04-04 06:31:15 51°13.626 2°56.01 114.5 4.3 293 -999
2007-04-04 06:31:20 51°13.628 2°56.001 113.9 4.5 291 -999
2007-04-04 06:31:25 51°13.631 2°55.991 113.6 4.6 291 -999
2007-04-04 06:31:31 51°13.633 2°55.98 113.6 4.7 291 -999
2007-04-04 06:31:36 51°13.636 2°55.97 114.3 4.8 291 -999
2007-04-04 06:31:40 51°13.638 2°55.962 115.4 4.9 292 -999
2007-04-04 06:31:45 51°13.64 2°55.951 116.6 5.1 293 -999
2007-04-04 06:31:50 51°13.643 2°55.941 117.7 5.1 294 -999
2007-04-04 06:31:56 51°13.647 2°55.929 118.9 5 295 -999
2007-04-04 06:32:00 51°13.649 2°55.922 120.1 4.9 296 -999
2007-04-04 06:32:05 51°13.652 2°55.912 121.2 4.8 297 -999
2007-04-04 06:32:10 51°13.656 2°55.903 121.8 4.7 298 5
2007-04-04 06:32:16 51°13.659 2°55.892 122.4 4.8 299 4.7
2007-04-04 06:32:21 51°13.662 2°55.882 122.8 4.9 300 -999
2007-04-04 06:32:25 51°13.665 2°55.875 123.4 5 301 -999
2007-04-04 06:32:30 51°13.669 2°55.865 123.8 4.8 301 -999
2007-04-04 06:32:36 51°13.672 2°55.854 123.8 4.6 300 -999
2007-04-04 06:32:41 51°13.676 2°55.846 123.4 4.5 300 -999
2007-04-04 06:32:46 51°13.678 2°55.837 122.8 4.3 299 -999
2007-04-04 06:32:50 51°13.681 2°55.831 122.4 4.2 299 -999
2007-04-04 06:32:55 51°13.683 2°55.823 122 4.1 298 9.1
2007-04-04 06:33:00 51°13.686 2°55.815 121.6 4 298 9.1
2007-04-04 06:33:05 51°13.689 2°55.808 120.9 3.9 297 9.2
2007-04-04 06:33:10 51°13.691 2°55.8 120.4 3.8 297 9.4
2007-04-04 06:33:15 51°13.693 2°55.793 119.6 3.7 296 4.8
2007-04-04 06:33:20 51°13.695 2°55.786 118.9 3.6 294 5.2
2007-04-04 06:33:25 51°13.697 2°55.779 117.8 3.5 293 10.8
2007-04-04 06:33:30 51°13.699 2°55.772 116.8 3.4 291 11.3
2007-04-04 06:33:35 51°13.701 2°55.765 115.8 3.3 290 11.5
2007-04-04 06:33:40 51°13.702 2°55.758 115.2 3.3 289 12.1
2007-04-04 06:33:45 51°13.704 2°55.751 114.5 3.2 290 12.1
2007-04-04 06:33:50 51°13.705 2°55.745 114.1 3.1 288 11.8
2007-04-04 06:33:55 51°13.706 2°55.738 113.9 2.9 287 11.6
2007-04-04 06:34:00 51°13.707 2°55.733 113.8 2.6 287 11.4
2007-04-04 06:34:05 51°13.708 2°55.728 113.1 2.5 289 11.4
2007-04-04 06:34:10 51°13.709 2°55.722 112.5 2.3 287 11.4
2007-04-04 06:34:15 51°13.71 2°55.718 112.2 1.9 287 10.8
2007-04-04 06:34:20 51°13.711 2°55.715 111.8 1.5 286 10.9
2007-04-04 06:34:25 51°13.711 2°55.713 110.2 1.2 288 10.8
2007-04-04 06:34:30 51°13.711 2°55.711 107.5 0.8 276 10.9
2007-04-04 06:34:36 51°13.711 2°55.71 104.5 0.4 280 11.1
2007-04-04 06:34:40 51°13.711 2°55.71 101.4 0.1 282 11.1
2007-04-04 06:34:45 51°13.712 2°55.71 98 0.1 57 11
2007-04-04 06:34:50 51°13.712 2°55.71 94.4 0.3 82 10.9
2007-04-04 06:34:55 51°13.712 2°55.712 90.5 0.6 78 10.8
2007-04-04 06:35:00 51°13.712 2°55.713 85.3 0.8 73 10.6
2007-04-04 06:35:05 51°13.713 2°55.715 81.8 1 70 10.7
2007-04-04 06:35:10 51°13.713 2°55.718 77.3 1.2 68 10.5
2007-04-04 06:35:15 51°13.714 2°55.72 72.7 1.2 63 10.8
2007-04-04 06:35:20 51°13.715 2°55.722 68.1 1.1 60 10.7
2007-04-04 06:35:25 51°13.716 2°55.724 64.5 0.8 63 11.3
2007-04-04 06:35:30 51°13.716 2°55.725 62.2 0.5 66 11.2
2007-04-04 06:35:35 51°13.716 2°55.725 60 0.2 81 11.2
2007-04-04 06:35:40 51°13.716 2°55.725 57.8 0.2 191 11.2
2007-04-04 06:35:45 51°13.715 2°55.725 56 0.7 221 11.3
2007-04-04 06:35:50 51°13.714 2°55.723 54.4 1.1 224 11.5
2007-04-04 06:35:55 51°13.713 2°55.721 53.4 1.4 227 11.1
2007-04-04 06:36:00 51°13.712 2°55.719 52.7 1.3 226 11
2007-04-04 06:36:05 51°13.71 2°55.717 52.5 1.3 226 10.8
2007-04-04 06:36:11 51°13.709 2°55.714 52.6 1.3 227 -999
2007-04-04 06:36:16 51°13.708 2°55.712 53.1 1.1 231 5.2
2007-04-04 06:36:20 51°13.707 2°55.711 53.4 0.8 236 -999
2007-04-04 06:36:25 51°13.707 2°55.71 52.7 0.3 244 -999
2007-04-04 06:36:30 51°13.707 2°55.71 49.9 0.5 11 -999
2007-04-04 06:36:36 51°13.709 2°55.711 45.1 1.1 28 -999
2007-04-04 06:36:40 51°13.711 2°55.713 40.1 1.9 22 5
2007-04-04 06:36:45 51°13.714 2°55.714 34 2.4 17 5
2007-04-04 06:36:50 51°13.717 2°55.715 26.8 2.2 7 5
2007-04-04 06:36:55 51°13.721 2°55.715 19.8 2.7 2 10.5
2007-04-04 06:37:00 51°13.725 2°55.715 12.3 2.7 353 10.3
2007-04-04 06:37:05 51°13.729 2°55.713 5.7 2.8 349 10.6
2007-04-04 06:37:10 51°13.733 2°55.712 359.7 3 347 10.4
2007-04-04 06:37:15 51°13.737 2°55.709 353.6 3.4 338 10.6
2007-04-04 06:37:20 51°13.742 2°55.706 346.9 3.6 336 10.3
2007-04-04 06:37:25 51°13.746 2°55.703 342.2 4 335 10.2
2007-04-04 06:37:30 51°13.752 2°55.699 339.8 4.2 335 10.2
2007-04-04 06:37:35 51°13.757 2°55.694 338.9 4.5 335 10.2
2007-04-04 06:37:40 51°13.763 2°55.69 338.7 4.7 336 9.8
2007-04-04 06:37:45 51°13.77 2°55.686 339.2 5 336 9.7
2007-04-04 06:37:50 51°13.776 2°55.681 339.4 5.3 335 9.7
2007-04-04 06:37:55 51°13.783 2°55.675 338.9 5.7 334 9.7
2007-04-04 06:38:00 51°13.791 2°55.669 338.2 6 334 9.7
2007-04-04 06:38:05 51°13.798 2°55.664 337.6 6.2 334 9.7
2007-04-04 06:38:10 51°13.806 2°55.657 337.6 6.6 334 9.7
2007-04-04 06:38:15 51°13.815 2°55.651 338.1 6.8 335 9.7
2007-04-04 06:38:20 51°13.824 2°55.644 338.4 7 335 9.7
2007-04-04 06:38:25 51°13.833 2°55.638 338.6 7.1 335 9.7
2007-04-04 06:38:30 51°13.842 2°55.631 338.6 7.3 335 9.6
2007-04-04 06:38:35 51°13.851 2°55.624 338.9 7.4 335 9.7
2007-04-04 06:38:40 51°13.861 2°55.617 339.3 7.5 335 9.6
2007-04-04 06:38:45 51°13.87 2°55.61 339.5 7.6 335 9.6
2007-04-04 06:38:50 51°13.88 2°55.603 339.7 7.7 334 9.6
2007-04-04 06:38:55 51°13.89 2°55.596 339.7 7.9 334 9.6
2007-04-04 06:39:00 51°13.9 2°55.588 339.6 7.9 334 9.7
2007-04-04 06:39:05 51°13.91 2°55.58 339.6 8 335 9.7
2007-04-04 06:39:10 51°13.92 2°55.572 339.9 8 335 9.7
2007-04-04 06:39:15 51°13.93 2°55.565 340 8.1 334 9.7
2007-04-04 06:39:20 51°13.94 2°55.557 340.1 8.1 335 9.8
2007-04-04 06:39:25 51°13.95 2°55.55 340.4 8.2 335 9.8
2007-04-04 06:39:30 51°13.961 2°55.542 340.5 8.2 335 9.7
2007-04-04 06:39:35 51°13.971 2°55.535 340.4 8.2 336 9.7
2007-04-04 06:39:40 51°13.981 2°55.527 340.9 8.2 337 9.8
2007-04-04 06:39:45 51°13.992 2°55.52 341.1 8.2 336 9.8
2007-04-04 06:39:50 51°14.002 2°55.513 341.1 8.2 337 9.8
2007-04-04 06:39:55 51°14.012 2°55.506 341.2 8.3 336 9.8
2007-04-04 06:40:00 51°14.023 2°55.498 341.1 8.3 336 9.7
2007-04-04 06:40:05 51°14.033 2°55.491 340.6 8.3 336 9.8
2007-04-04 06:40:10 51°14.044 2°55.483 340.6 8.3 335 9.8
2007-04-04 06:40:15 51°14.054 2°55.476 340.4 8.3 336 9.8
2007-04-04 06:40:20 51°14.065 2°55.468 340.2 8.3 336 9.8
2007-04-04 06:40:25 51°14.075 2°55.461 340.4 8.3 336 9.8
2007-04-04 06:40:30 51°14.086 2°55.453 340.6 8.3 335 9.8
2007-04-04 06:40:35 51°14.096 2°55.445 340.4 8.3 334 9.8
2007-04-04 06:40:40 51°14.106 2°55.437 339.3 8.3 333 9.8
2007-04-04 06:40:45 51°14.117 2°55.428 338.2 8.3 333 9.8
2007-04-04 06:40:50 51°14.126 2°55.419 338 8.2 331 9.8
2007-04-04 06:40:55 51°14.136 2°55.41 337.3 8.2 331 9.8
2007-04-04 06:41:00 51°14.146 2°55.401 336.4 8.2 328 9.8
2007-04-04 06:41:05 51°14.156 2°55.391 335.4 8.2 328 9.8
2007-04-04 06:41:10 51°14.165 2°55.381 334.4 8.2 327 10.2
2007-04-04 06:41:15 51°14.175 2°55.371 333.2 8.3 325 9.8
2007-04-04 06:41:20 51°14.184 2°55.36 331.6 8.3 324 9.8
2007-04-04 06:41:25 51°14.193 2°55.349 330 8.3 322 9.8
2007-04-04 06:41:30 51°14.202 2°55.337 328.4 8.3 321 9.7
2007-04-04 06:41:35 51°14.211 2°55.325 327 8.4 320 9.8
2007-04-04 06:41:40 51°14.22 2°55.313 325.5 8.4 319 9.7
2007-04-04 06:41:45 51°14.229 2°55.301 324.3 8.4 319 9.5
2007-04-04 06:41:50 51°14.238 2°55.288 323.3 8.4 317 9.4
2007-04-04 06:41:55 51°14.246 2°55.275 322.1 8.4 315 9.4
2007-04-04 06:42:00 51°14.254 2°55.262 320.7 8.4 315 9
2007-04-04 06:42:05 51°14.262 2°55.248 319.7 8.5 313 9.1
2007-04-04 06:42:10 51°14.27 2°55.234 318.5 8.6 313 9
2007-04-04 06:42:15 51°14.278 2°55.22 317.6 8.8 313 8.9
2007-04-04 06:42:20 51°14.287 2°55.205 317.3 9 313 9.1
2007-04-04 06:42:25 51°14.295 2°55.19 317.6 9.2 313 9.4
2007-04-04 06:42:30 51°14.304 2°55.175 317.8 9.4 313 9.5
2007-04-04 06:42:35 51°14.313 2°55.159 318.2 9.7 313 9.6
2007-04-04 06:42:40 51°14.323 2°55.143 318.1 10.1 311 9.7
2007-04-04 06:42:45 51°14.332 2°55.125 317.1 10.5 311 9.6
2007-04-04 06:42:50 51°14.342 2°55.107 316 10.7 310 9.5
2007-04-04 06:42:56 51°14.353 2°55.085 315.5 10.9 311 9.4
2007-04-04 06:43:00 51°14.361 2°55.07 315.5 11.2 309 9.2
2007-04-04 06:43:05 51°14.371 2°55.05 314.7 11.3 308 9.2
2007-04-04 06:43:10 51°14.381 2°55.029 313.8 11.6 308 9.3
2007-04-04 06:43:15 51°14.391 2°55.01 313.7 12.1 310 9.2
2007-04-04 06:43:20 51°14.402 2°54.989 315.4 12.3 310 9.2
2007-04-04 06:43:25 51°14.414 2°54.968 317.3 12.5 312 8.9
2007-04-04 06:43:30 51°14.426 2°54.947 319.2 12.6 312 9.1
2007-04-04 06:43:36 51°14.44 2°54.922 321.3 12.8 313 9.4
2007-04-04 06:43:40 51°14.45 2°54.905 321.9 13 313 8.9
2007-04-04 06:43:45 51°14.462 2°54.885 321.8 13 314 8.9
2007-04-04 06:43:50 51°14.475 2°54.865 322.8 12.9 314 8.4
2007-04-04 06:43:55 51°14.488 2°54.845 323.8 13 315 8.6
2007-04-04 06:44:00 51°14.501 2°54.824 324.7 13.1 316 8.5
2007-04-04 06:44:05 51°14.514 2°54.805 325.2 13 317 8
2007-04-04 06:44:10 51°14.527 2°54.785 326.7 13.1 318 8.4
2007-04-04 06:44:15 51°14.54 2°54.765 328.2 13.1 316 8.1
2007-04-04 06:44:20 51°14.553 2°54.746 328.4 13.1 318 8
2007-04-04 06:44:25 51°14.567 2°54.727 328 13 319 8.3
2007-04-04 06:44:30 51°14.581 2°54.708 328.8 13.1 319 8
2007-04-04 06:44:35 51°14.595 2°54.688 329.1 13.1 318 7.9
2007-04-04 06:44:40 51°14.608 2°54.668 328.6 13.2 318 8.1
2007-04-04 06:44:45 51°14.621 2°54.648 328.6 13.2 316 8
2007-04-04 06:44:50 51°14.634 2°54.628 328 13.3 316 8.2
2007-04-04 06:44:55 51°14.647 2°54.608 327.2 13.2 317 7.9
2007-04-04 06:45:00 51°14.661 2°54.588 327.9 13.2 317 7.8
2007-04-04 06:45:05 51°14.674 2°54.568 328.4 13.3 317 7.9
2007-04-04 06:45:10 51°14.688 2°54.548 328.3 13.2 316 8
2007-04-04 06:45:15 51°14.701 2°54.528 328.2 13.3 316 8.4
2007-04-04 06:45:20 51°14.714 2°54.507 328.7 13.5 315 8.6
2007-04-04 06:45:25 51°14.727 2°54.487 328 13.3 317 8
2007-04-04 06:45:30 51°14.741 2°54.467 328.5 13.3 317 8.3
2007-04-04 06:45:35 51°14.755 2°54.447 328.8 13.4 319 8
2007-04-04 06:45:40 51°14.769 2°54.427 329.7 13.3 318 7.9
2007-04-04 06:45:45 51°14.783 2°54.409 330.1 13.2 320 7.8
2007-04-04 06:45:50 51°14.797 2°54.391 331 13 321 7.8
2007-04-04 06:45:55 51°14.811 2°54.373 331.7 13 322 7.8
2007-04-04 06:46:00 51°14.825 2°54.355 332.3 12.9 321 7.5
2007-04-04 06:46:05 51°14.839 2°54.337 332.4 13 321 7.7
2007-04-04 06:46:10 51°14.853 2°54.319 332 13.1 321 7.6
2007-04-04 06:46:15 51°14.867 2°54.301 331.6 13.1 321 8.1
2007-04-04 06:46:20 51°14.881 2°54.282 331.4 13.2 320 7.7
2007-04-04 06:46:25 51°14.895 2°54.263 331.2 13.1 319 7.8
2007-04-04 06:46:30 51°14.908 2°54.245 330.6 12.9 319 8
2007-04-04 06:46:35 51°14.922 2°54.226 330 12.9 319 7.7
2007-04-04 06:46:40 51°14.935 2°54.206 330.2 12.9 318 7.3
2007-04-04 06:46:45 51°14.948 2°54.188 329.2 12.7 318 7.4
2007-04-04 06:46:50 51°14.961 2°54.169 329.6 12.7 318 7.5
2007-04-04 06:46:55 51°14.974 2°54.15 329.2 12.8 317 7.2
2007-04-04 06:47:00 51°14.987 2°54.132 328.6 12.7 319 7
2007-04-04 06:47:05 51°15.002 2°54.115 330.2 12.6 323 7
2007-04-04 06:47:10 51°15.016 2°54.1 332.8 12.5 326 7.1
2007-04-04 06:47:15 51°15.031 2°54.085 336 12.5 328 7.4
2007-04-04 06:47:20 51°15.046 2°54.071 337.9 12.6 329 7.5
2007-04-04 06:47:25 51°15.061 2°54.057 339.9 12.6 330 7.4
2007-04-04 06:47:30 51°15.076 2°54.043 341.2 12.6 329 7.5
2007-04-04 06:47:35 51°15.091 2°54.028 341.8 12.6 328 7.2
2007-04-04 06:47:40 51°15.106 2°54.014 341.4 12.5 329 7.6
2007-04-04 06:47:45 51°15.121 2°53.999 341.2 12.5 329 7.3
2007-04-04 06:47:50 51°15.136 2°53.985 341.1 12.7 330 7.2
2007-04-04 06:47:56 51°15.154 2°53.969 341.4 12.8 330 7.3
2007-04-04 06:48:00 51°15.166 2°53.957 341.9 12.8 330 7.4
2007-04-04 06:48:05 51°15.182 2°53.943 341.8 12.8 329 5.7
2007-04-04 06:48:10 51°15.197 2°53.928 341.6 12.7 328 7.4
2007-04-04 06:48:16 51°15.214 2°53.91 340.8 12.6 327 7.7
2007-04-04 06:48:20 51°15.226 2°53.898 339.9 12.8 327 7.9
2007-04-04 06:48:25 51°15.241 2°53.882 338.9 12.9 327 7.7
2007-04-04 06:48:30 51°15.256 2°53.867 339.1 13.1 327 7.9
2007-04-04 06:48:35 51°15.271 2°53.85 338.9 12.9 327 7.3
2007-04-04 06:48:40 51°15.286 2°53.836 338.9 12.8 328 7.9
2007-04-04 06:48:45 51°15.301 2°53.82 339.7 13 327 8.3
2007-04-04 06:48:50 51°15.316 2°53.805 339.4 12.9 328 8.1
2007-04-04 06:48:55 51°15.332 2°53.79 339.6 13 328 8.1
2007-04-04 06:49:00 51°15.347 2°53.775 340.3 13 329 8.3
2007-04-04 06:49:05 51°15.363 2°53.76 340.4 13.1 328 8.4
2007-04-04 06:49:10 51°15.378 2°53.745 340.3 13.1 328 8.3
2007-04-04 06:49:15 51°15.394 2°53.73 340 13.2 328 8.5
2007-04-04 06:49:20 51°15.409 2°53.714 339.6 13.1 328 8.2
2007-04-04 06:49:25 51°15.425 2°53.699 339.3 13.2 328 8.3
2007-04-04 06:49:30 51°15.44 2°53.684 339.2 13.1 328 8.4
2007-04-04 06:49:36 51°15.459 2°53.666 339.3 13.1 330 8.5
2007-04-04 06:49:40 51°15.471 2°53.654 340.9 13.1 329 8.6
2007-04-04 06:49:45 51°15.487 2°53.64 341.4 13 331 8.7
2007-04-04 06:49:50 51°15.503 2°53.626 341.9 13.1 331 8.7
2007-04-04 06:49:55 51°15.519 2°53.612 342.5 13.2 331 8.8
2007-04-04 06:50:00 51°15.534 2°53.598 342.5 13.2 331 8.8
2007-04-04 06:50:05 51°15.55 2°53.584 342.9 13.2 331 8.8
2007-04-04 06:50:10 51°15.567 2°53.57 342.9 13.1 332 8.7
2007-04-04 06:50:16 51°15.586 2°53.554 343.2 13.1 332 8.9
2007-04-04 06:50:20 51°15.599 2°53.543 344.1 13.1 333 9
2007-04-04 06:50:25 51°15.615 2°53.53 344.5 13.2 333 9.2
2007-04-04 06:50:30 51°15.631 2°53.516 344.9 13.1 331 9
2007-04-04 06:50:35 51°15.647 2°53.502 344.3 13.1 331 8.9
2007-04-04 06:50:40 51°15.663 2°53.489 343.4 13.2 331 9.2
2007-04-04 06:50:45 51°15.679 2°53.474 343.4 13.2 331 9.3
2007-04-04 06:50:50 51°15.695 2°53.46 343.1 13.2 331 9.2
2007-04-04 06:50:55 51°15.711 2°53.446 343 13.2 331 9.2
2007-04-04 06:51:00 51°15.727 2°53.431 342.8 13.2 330 9.1
2007-04-04 06:51:05 51°15.743 2°53.418 343.2 13.1 331 9.4
2007-04-04 06:51:10 51°15.759 2°53.403 343.3 13.1 331 9.3
2007-04-04 06:51:15 51°15.775 2°53.389 343.4 13.2 331 9.7
2007-04-04 06:51:20 51°15.79 2°53.375 343.5 13.1 330 9.6
2007-04-04 06:51:25 51°15.806 2°53.36 342.8 13.2 330 9.6
2007-04-04 06:51:30 51°15.822 2°53.346 342.8 13.2 331 9.6
2007-04-04 06:51:35 51°15.838 2°53.331 343.1 13.3 331 9.6
2007-04-04 06:51:40 51°15.854 2°53.317 342.8 13.1 332 9.9
2007-04-04 06:51:45 51°15.871 2°53.303 344 13.2 332 9.7
2007-04-04 06:51:50 51°15.887 2°53.29 344.4 13.1 333 9.6
2007-04-04 06:51:55 51°15.903 2°53.277 345.3 13.1 332 9.9
2007-04-04 06:52:00 51°15.919 2°53.264 345.4 12.9 335 9.7
2007-04-04 06:52:05 51°15.935 2°53.252 346.5 12.8 335 10
2007-04-04 06:52:10 51°15.952 2°53.241 347.4 12.8 336 9.6
2007-04-04 06:52:15 51°15.968 2°53.229 348.2 12.6 336 9.6
2007-04-04 06:52:20 51°15.984 2°53.218 348.7 12.6 337 10
2007-04-04 06:52:25 51°16 2°53.207 349.2 12.7 337 10
2007-04-04 06:52:30 51°16.016 2°53.196 349.6 12.8 336 9.9
2007-04-04 06:52:35 51°16.032 2°53.184 349.4 12.5 336 9.3
2007-04-04 06:52:40 51°16.048 2°53.173 349.1 12.5 336 9.7
2007-04-04 06:52:45 51°16.063 2°53.162 348.7 12.6 336 9.9
2007-04-04 06:52:50 51°16.08 2°53.151 348.9 12.7 335 9.9
2007-04-04 06:52:56 51°16.099 2°53.136 348.8 12.7 336 10
2007-04-04 06:53:00 51°16.112 2°53.127 348.4 12.7 336 10.1
2007-04-04 06:53:05 51°16.128 2°53.116 348.5 12.7 336 10
2007-04-04 06:53:10 51°16.144 2°53.105 348.6 12.7 336 9.9
2007-04-04 06:53:15 51°16.16 2°53.093 348.8 12.7 336 10.1
2007-04-04 06:53:20 51°16.176 2°53.082 349 12.8 336 10.1
2007-04-04 06:53:25 51°16.193 2°53.07 349.1 12.6 335 9.9
2007-04-04 06:53:30 51°16.208 2°53.059 348.7 12.5 335 10.4
2007-04-04 06:53:35 51°16.224 2°53.047 348.5 12.5 335 10.2
2007-04-04 06:53:40 51°16.24 2°53.035 348.1 12.7 336 9.8
2007-04-04 06:53:45 51°16.257 2°53.024 348 12.6 336 10.1
2007-04-04 06:53:50 51°16.273 2°53.013 348.5 12.6 336 10.3
2007-04-04 06:53:55 51°16.289 2°53.001 349.1 12.7 337 10.3
2007-04-04 06:54:00 51°16.305 2°52.99 348.9 12.8 335 10.2
2007-04-04 06:54:05 51°16.321 2°52.978 348.6 12.7 336 9.9
2007-04-04 06:54:10 51°16.337 2°52.967 348.2 12.8 335 10.2
2007-04-04 06:54:15 51°16.353 2°52.955 347.8 12.8 336 10.4
2007-04-04 06:54:20 51°16.369 2°52.943 347.6 12.7 335 10.2
2007-04-04 06:54:25 51°16.385 2°52.932 347.9 12.7 336 10.3
2007-04-04 06:54:30 51°16.401 2°52.92 348 12.8 335 10.4
2007-04-04 06:54:35 51°16.417 2°52.908 348 12.8 337 10.4
2007-04-04 06:54:40 51°16.434 2°52.897 347.8 12.8 336 10.6
2007-04-04 06:54:45 51°16.45 2°52.886 348.4 12.8 337 10.6
2007-04-04 06:54:50 51°16.466 2°52.875 349.1 12.7 336 10.6
2007-04-04 06:54:56 51°16.485 2°52.862 349 12.6 337 9.9
2007-04-04 06:55:00 51°16.498 2°52.853 349.1 12.7 336 10.1
2007-04-04 06:55:05 51°16.515 2°52.842 349.3 12.7 337 9.9
2007-04-04 06:55:10 51°16.531 2°52.831 349 12.8 336 10
2007-04-04 06:55:15 51°16.547 2°52.82 349 12.8 338 10
2007-04-04 06:55:20 51°16.563 2°52.809 349.2 12.8 337 10.2
2007-04-04 06:55:25 51°16.58 2°52.798 349.3 12.7 337 9.8
2007-04-04 06:55:30 51°16.596 2°52.788 349.1 12.7 338 10.3
2007-04-04 06:55:35 51°16.613 2°52.777 349.7 12.6 339 9.9
2007-04-04 06:55:41 51°16.632 2°52.766 349.7 12.6 340 10
2007-04-04 06:55:45 51°16.646 2°52.758 349.6 12.7 340 9.7
2007-04-04 06:55:50 51°16.662 2°52.748 350 12.8 339 9.8
2007-04-04 06:55:55 51°16.679 2°52.739 350.1 12.7 341 9.6
2007-04-04 06:56:00 51°16.696 2°52.729 350.2 12.7 340 9.1
2007-04-04 06:56:05 51°16.712 2°52.72 349.8 12.5 341 9
2007-04-04 06:56:10 51°16.728 2°52.711 349.9 12.5 340 8.7
2007-04-04 06:56:15 51°16.745 2°52.701 349.7 12.6 340 8.5
2007-04-04 06:56:20 51°16.761 2°52.692 349.3 12.5 340 8.4
2007-04-04 06:56:25 51°16.777 2°52.682 349.4 12.4 339 8.2
2007-04-04 06:56:30 51°16.793 2°52.672 348.8 12.3 339 8.3
2007-04-04 06:56:35 51°16.809 2°52.663 348.8 12.4 340 8.1
2007-04-04 06:56:40 51°16.825 2°52.653 348.8 12.4 340 8
2007-04-04 06:56:45 51°16.842 2°52.643 348.5 12.5 339 7.8
2007-04-04 06:56:50 51°16.858 2°52.635 348.6 12.2 340 7.7
2007-04-04 06:56:55 51°16.874 2°52.625 348.9 12.2 341 8.2
2007-04-04 06:57:00 51°16.89 2°52.617 349.1 12.2 341 8.3
2007-04-04 06:57:05 51°16.906 2°52.607 349.8 12.4 339 8.2
2007-04-04 06:57:10 51°16.922 2°52.597 349.2 12.5 340 8.1
2007-04-04 06:57:16 51°16.941 2°52.587 349.4 12.4 341 7.9
2007-04-04 06:57:20 51°16.954 2°52.579 349.8 12.4 339 8
2007-04-04 06:57:25 51°16.97 2°52.569 349.1 12.3 339 8.6
2007-04-04 06:57:30 51°16.986 2°52.559 349.1 12.4 339 8.5
2007-04-04 06:57:36 51°17.006 2°52.548 348.5 12.4 341 8
2007-04-04 06:57:40 51°17.019 2°52.54 349.6 12.6 339 7.7
2007-04-04 06:57:45 51°17.035 2°52.53 348.8 12.5 340 8.1
2007-04-04 06:57:50 51°17.051 2°52.521 349.1 12.2 340 7.9
2007-04-04 06:57:55 51°17.067 2°52.511 349.1 12.3 340 7.7
2007-04-04 06:58:00 51°17.083 2°52.502 348.8 12.6 340 8.2
2007-04-04 06:58:05 51°17.099 2°52.492 348.8 12.3 341 8.1
2007-04-04 06:58:10 51°17.115 2°52.482 349.5 12.1 338 7.6
2007-04-04 06:58:15 51°17.131 2°52.473 349.1 12.3 340 8.4
2007-04-04 06:58:20 51°17.147 2°52.464 349.8 12.5 340 8.4
2007-04-04 06:58:25 51°17.164 2°52.454 349.8 12.5 340 8.1
2007-04-04 06:58:30 51°17.18 2°52.444 349.4 12.5 339 8.3
2007-04-04 06:58:35 51°17.196 2°52.435 349.2 12.6 340 8.4
2007-04-04 06:58:40 51°17.212 2°52.425 349.1 12.7 340 8.6
2007-04-04 06:58:45 51°17.229 2°52.415 348.8 12.7 340 8.6
2007-04-04 06:58:50 51°17.245 2°52.405 349.1 12.4 340 8.4
2007-04-04 06:58:55 51°17.261 2°52.395 349.4 12.5 339 8.7
2007-04-04 06:59:00 51°17.277 2°52.385 349 12.5 340 8.7
2007-04-04 06:59:05 51°17.294 2°52.375 349.5 12.6 338 8.7
2007-04-04 06:59:10 51°17.31 2°52.365 349 12.6 339 8.6
2007-04-04 06:59:16 51°17.33 2°52.352 348.9 12.6 338 8.6
2007-04-04 06:59:20 51°17.342 2°52.345 348.3 12.7 340 9
2007-04-04 06:59:25 51°17.359 2°52.334 348.8 12.6 338 8.9
2007-04-04 06:59:30 51°17.375 2°52.324 349.1 12.5 339 8.2
2007-04-04 06:59:36 51°17.393 2°52.31 348.7 12.7 334 8.9
2007-04-04 06:59:40 51°17.406 2°52.301 346.7 12.7 335 9
2007-04-04 06:59:45 51°17.422 2°52.288 346 12.8 332 8.6
2007-04-04 06:59:50 51°17.437 2°52.275 344.2 12.6 333 8.5
2007-04-04 06:59:55 51°17.453 2°52.26 343.9 12.6 330 9.1
2007-04-04 07:00:00 51°17.468 2°52.247 342.6 12.6 333 8.9
2007-04-04 07:00:05 51°17.483 2°52.234 343.3 12.8 330 9.2
2007-04-04 07:00:10 51°17.499 2°52.22 342.5 12.7 331 8.9
2007-04-04 07:00:15 51°17.514 2°52.206 342.7 12.9 330 9
2007-04-04 07:00:20 51°17.529 2°52.192 342.8 12.6 330 9.3
2007-04-04 07:00:25 51°17.544 2°52.177 342.1 12.6 329 8.7
2007-04-04 07:00:30 51°17.559 2°52.164 342.1 12.6 329 8.3
2007-04-04 07:00:35 51°17.574 2°52.149 342.2 12.6 330 8.9
2007-04-04 07:00:40 51°17.59 2°52.136 342.5 12.7 331 8.9
2007-04-04 07:00:45 51°17.606 2°52.122 343 12.7 331 8.9
2007-04-04 07:00:50 51°17.621 2°52.108 343.3 12.8 331 9
2007-04-04 07:00:55 51°17.636 2°52.094 343.6 12.7 332 9.2
2007-04-04 07:01:00 51°17.652 2°52.081 343.9 12.8 331 8.9
2007-04-04 07:01:05 51°17.667 2°52.067 343.4 12.8 330 8.7
2007-04-04 07:01:10 51°17.683 2°52.052 342.9 12.8 330 8.7
2007-04-04 07:01:15 51°17.698 2°52.038 342.7 12.9 330 8.9
2007-04-04 07:01:20 51°17.714 2°52.024 342.4 12.9 330 8.7
2007-04-04 07:01:25 51°17.73 2°52.01 342.3 12.9 331 8.6
2007-04-04 07:01:30 51°17.745 2°51.996 342.5 12.9 330 9.1
2007-04-04 07:01:35 51°17.761 2°51.982 342.5 12.7 330 8.7
2007-04-04 07:01:40 51°17.776 2°51.968 342.3 12.9 330 9
2007-04-04 07:01:45 51°17.791 2°51.952 342.4 13 328 8.7
2007-04-04 07:01:50 51°17.806 2°51.938 341.8 12.9 329 8.3
2007-04-04 07:01:55 51°17.821 2°51.923 340.6 13 328 8.8
2007-04-04 07:02:00 51°17.837 2°51.907 340.9 13 328 8.7
2007-04-04 07:02:05 51°17.852 2°51.893 340.5 12.9 329 8.2
2007-04-04 07:02:10 51°17.867 2°51.878 341.1 13 330 8.7
2007-04-04 07:02:15 51°17.883 2°51.864 341.8 12.9 329 8.5
2007-04-04 07:02:20 51°17.898 2°51.849 341.6 12.9 330 8.9
2007-04-04 07:02:25 51°17.914 2°51.834 341.8 13 329 8.9
2007-04-04 07:02:30 51°17.929 2°51.82 341.7 13 329 8.7
2007-04-04 07:02:35 51°17.945 2°51.805 341.5 13 329 8.8
2007-04-04 07:02:40 51°17.96 2°51.791 341.1 12.9 330 9
2007-04-04 07:02:45 51°17.975 2°51.775 341.8 13 328 9.1
2007-04-04 07:02:50 51°17.991 2°51.76 341.7 13.1 328 9
2007-04-04 07:02:55 51°18.007 2°51.745 340.7 13.1 330 8.8
2007-04-04 07:03:00 51°18.022 2°51.731 340.5 13 329 8.7
2007-04-04 07:03:05 51°18.038 2°51.716 341.1 13.2 329 9.2
2007-04-04 07:03:10 51°18.054 2°51.702 341.7 13.2 330 8.9
2007-04-04 07:03:15 51°18.069 2°51.686 341.8 13.1 329 9.2
2007-04-04 07:03:20 51°18.085 2°51.672 341.6 13.1 329 9.8
2007-04-04 07:03:25 51°18.1 2°51.657 341.1 13.1 330 9.5
2007-04-04 07:03:30 51°18.116 2°51.642 341.5 13.2 328 9.4
2007-04-04 07:03:35 51°18.132 2°51.627 341.1 13.2 330 9.6
2007-04-04 07:03:40 51°18.147 2°51.612 341.4 13.3 329 9.8
2007-04-04 07:03:45 51°18.163 2°51.597 340.9 13.1 331 9.5
2007-04-04 07:03:50 51°18.179 2°51.582 341.8 13.3 329 10.1
2007-04-04 07:03:55 51°18.195 2°51.568 341.2 13.2 330 10.1
2007-04-04 07:04:00 51°18.211 2°51.552 341.8 13.2 328 9.9
2007-04-04 07:04:05 51°18.227 2°51.538 341.2 13.3 330 10.3
2007-04-04 07:04:10 51°18.243 2°51.522 341.1 13.3 328 10.3
2007-04-04 07:04:15 51°18.259 2°51.508 341.1 13.2 330 10.8
2007-04-04 07:04:20 51°18.275 2°51.492 341.3 13.4 329 10.5
2007-04-04 07:04:25 51°18.29 2°51.477 341.3 13.3 328 10.5
2007-04-04 07:04:30 51°18.306 2°51.46 341.1 13.4 327 10.4
2007-04-04 07:04:35 51°18.321 2°51.442 339.6 13.4 323 10.4
2007-04-04 07:04:40 51°18.334 2°51.423 336.7 13.3 320 10.5
2007-04-04 07:04:45 51°18.348 2°51.404 333.4 13.4 319 11
2007-04-04 07:04:50 51°18.362 2°51.383 331.2 13.6 316 11.1
2007-04-04 07:04:55 51°18.375 2°51.362 328.6 13.7 315 11.2
2007-04-04 07:05:00 51°18.388 2°51.341 328.2 13.5 313 10.9
2007-04-04 07:05:05 51°18.401 2°51.32 326.4 13.3 313 4.3
2007-04-04 07:05:10 51°18.414 2°51.299 325.4 13.3 314 11.3
2007-04-04 07:05:15 51°18.426 2°51.277 325.8 13.3 313 11.6
2007-04-04 07:05:20 51°18.439 2°51.255 324.6 13.5 314 11.6
2007-04-04 07:05:25 51°18.452 2°51.234 325 13.5 314 11.9
2007-04-04 07:05:30 51°18.465 2°51.212 325.6 13.7 312 12
2007-04-04 07:05:35 51°18.478 2°51.19 324.4 13.5 313 12.1
2007-04-04 07:05:40 51°18.49 2°51.167 325.1 13.5 311 12.4
2007-04-04 07:05:45 51°18.502 2°51.143 323.3 13.7 306 12.7
2007-04-04 07:05:50 51°18.512 2°51.117 318.2 13.8 303 12.6
2007-04-04 07:05:55 51°18.522 2°51.09 315.3 13.7 301 12.1
2007-04-04 07:06:00 51°18.531 2°51.064 312.6 13.8 300 12.6
2007-04-04 07:06:05 51°18.541 2°51.037 310.6 13.9 300 12.5
2007-04-04 07:06:10 51°18.549 2°51.009 310.6 14 296 12.3
2007-04-04 07:06:15 51°18.557 2°50.98 309.1 14.2 292 12.1
2007-04-04 07:06:20 51°18.565 2°50.952 304.6 14 295 12.5
2007-04-04 07:06:25 51°18.572 2°50.922 302.8 14.2 291 12.3
2007-04-04 07:06:30 51°18.579 2°50.892 301.8 14.3 291 12.3
2007-04-04 07:06:35 51°18.586 2°50.863 300.4 14.3 292 12.7
2007-04-04 07:06:40 51°18.592 2°50.833 301 14.4 289 13
2007-04-04 07:06:45 51°18.6 2°50.803 299.9 14.4 292 13
2007-04-04 07:06:50 51°18.606 2°50.773 300.6 14.5 287 12.7
2007-04-04 07:06:55 51°18.614 2°50.744 299.9 14.3 293 12.9
2007-04-04 07:07:00 51°18.621 2°50.715 300.8 14.3 291 12.9
2007-04-04 07:07:05 51°18.628 2°50.685 300.3 14.1 292 12.6
2007-04-04 07:07:10 51°18.635 2°50.655 301.4 14.4 288 12.8
2007-04-04 07:07:15 51°18.642 2°50.626 301 14.2 291 12.5
2007-04-04 07:07:20 51°18.647 2°50.595 300.7 14.4 285 12.4
2007-04-04 07:07:25 51°18.656 2°50.567 298.9 14.1 293 12.6
2007-04-04 07:07:30 51°18.663 2°50.538 302 14.1 291 12.8
2007-04-04 07:07:35 51°18.67 2°50.509 301.9 14.2 292 13.2
2007-04-04 07:07:40 51°18.677 2°50.48 301.7 14.3 291 12.9
2007-04-04 07:07:45 51°18.685 2°50.451 301.1 14.1 293 12.9
2007-04-04 07:07:50 51°18.691 2°50.421 301.4 14.3 289 13.1
2007-04-04 07:07:55 51°18.699 2°50.393 301.8 14.1 293 12.9
2007-04-04 07:08:00 51°18.705 2°50.362 301.2 14.4 288 13
2007-04-04 07:08:05 51°18.713 2°50.334 300.9 14 292 13
2007-04-04 07:08:10 51°18.718 2°50.304 300.4 14.2 289 13.2
2007-04-04 07:08:15 51°18.725 2°50.275 300.5 14.1 291 12.6
2007-04-04 07:08:20 51°18.733 2°50.247 300.6 13.8 292 12.8
2007-04-04 07:08:25 51°18.739 2°50.218 301.2 13.9 293 13
2007-04-04 07:08:30 51°18.745 2°50.187 301.2 14.4 288 12.1
2007-04-04 07:08:35 51°18.753 2°50.158 300.7 14.1 292 11.7
2007-04-04 07:08:40 51°18.759 2°50.128 300.7 14.1 289 11.5
2007-04-04 07:08:45 51°18.765 2°50.098 298.2 14.2 287 11.6
2007-04-04 07:08:50 51°18.771 2°50.069 299.4 14.2 287 11.4
2007-04-04 07:08:55 51°18.777 2°50.039 297.5 14.3 289 11.4
2007-04-04 07:09:00 51°18.784 2°50.008 297.7 14.3 291 11.3
2007-04-04 07:09:05 51°18.789 2°49.978 298.5 14.3 288 11.1
2007-04-04 07:09:10 51°18.796 2°49.949 298.5 14.3 291 10.9
2007-04-04 07:09:15 51°18.801 2°49.918 299.4 14.4 287 10.7
2007-04-04 07:09:20 51°18.807 2°49.888 298.8 14.1 288 10.4
2007-04-04 07:09:25 51°18.813 2°49.858 297.3 14.2 287 10.7
2007-04-04 07:09:30 51°18.818 2°49.827 295.9 14.3 285 10.5
2007-04-04 07:09:35 51°18.823 2°49.798 295.7 14.1 286 10.2
2007-04-04 07:09:40 51°18.828 2°49.767 295.5 14.4 283 9.9
2007-04-04 07:09:45 51°18.834 2°49.738 294.1 14.1 290 10.1
2007-04-04 07:09:50 51°18.838 2°49.706 296.1 14.4 282 9.6
2007-04-04 07:09:55 51°18.845 2°49.677 294.6 14.2 286 9.3
2007-04-04 07:10:00 51°18.849 2°49.646 294.4 14.2 285 9.5
2007-04-04 07:10:05 51°18.855 2°49.616 294.4 14.1 286 9
2007-04-04 07:10:10 51°18.86 2°49.586 294.3 14.2 285 9.1
2007-04-04 07:10:15 51°18.866 2°49.556 295 14.3 285 8.9
2007-04-04 07:10:20 51°18.87 2°49.524 292.5 14.5 286 8.7
2007-04-04 07:10:25 51°18.877 2°49.495 295.2 14.1 287 8.9
2007-04-04 07:10:30 51°18.88 2°49.464 294.6 14.2 284 9
2007-04-04 07:10:35 51°18.887 2°49.434 293.6 14.1 288 9.1
2007-04-04 07:10:40 51°18.892 2°49.404 296.2 14.1 285 9.4
2007-04-04 07:10:45 51°18.897 2°49.373 294.7 14.4 285 9.5
2007-04-04 07:10:50 51°18.905 2°49.344 294.7 14.2 290 9.8
2007-04-04 07:10:55 51°18.911 2°49.314 297.5 14.4 288 10.6
2007-04-04 07:11:00 51°18.916 2°49.283 297.5 14.4 288 10
2007-04-04 07:11:05 51°18.923 2°49.253 295.7 14.4 288 10.2
2007-04-04 07:11:10 51°18.928 2°49.224 296.5 14.4 287 10.4
2007-04-04 07:11:15 51°18.935 2°49.194 297.1 14.2 287 10.1
2007-04-04 07:11:20 51°18.94 2°49.163 296.1 14.5 287 10.2
2007-04-04 07:11:25 51°18.948 2°49.134 297.2 14.4 289 9.5
2007-04-04 07:11:30 51°18.954 2°49.104 298.6 14.4 288 9.5
2007-04-04 07:11:35 51°18.96 2°49.074 297.1 14.4 287 9.8
2007-04-04 07:11:40 51°18.967 2°49.044 296.7 14.4 288 10.1
2007-04-04 07:11:45 51°18.973 2°49.014 296.6 14.4 288 10.6
2007-04-04 07:11:50 51°18.979 2°48.983 296.8 14.7 287 10.6
2007-04-04 07:11:55 51°18.985 2°48.952 296.4 14.7 286 10.5
2007-04-04 07:12:00 51°18.992 2°48.923 294.6 14.4 291 11.1
2007-04-04 07:12:05 51°18.999 2°48.893 298.3 14.4 289 11.4
2007-04-04 07:12:10 51°19.005 2°48.863 297.9 14.6 290 11.9
2007-04-04 07:12:15 51°19.013 2°48.833 297.7 14.5 291 12.2
2007-04-04 07:12:20 51°19.018 2°48.802 298 14.5 287 12.8
2007-04-04 07:12:25 51°19.025 2°48.771 296.1 14.5 287 13.1
2007-04-04 07:12:30 51°19.03 2°48.74 295.7 14.6 287 13.5
2007-04-04 07:12:35 51°19.036 2°48.709 295.8 14.7 287 13.2
2007-04-04 07:12:40 51°19.042 2°48.677 294.6 14.7 285 13.1
2007-04-04 07:12:45 51°19.047 2°48.647 294.5 14.5 286 13.2
2007-04-04 07:12:50 51°19.053 2°48.616 295.3 14.3 284 13.2
2007-04-04 07:12:55 51°19.058 2°48.585 293.6 14.4 285 12.9
2007-04-04 07:13:00 51°19.063 2°48.554 292 14.4 286 12.7
2007-04-04 07:13:05 51°19.068 2°48.524 293.5 14.4 287 13.1
2007-04-04 07:13:10 51°19.074 2°48.493 295.1 14.2 286 13.5
2007-04-04 07:13:15 51°19.079 2°48.463 294.7 14.3 286 14.1
2007-04-04 07:13:20 51°19.085 2°48.432 294.5 14.3 286 14.7
2007-04-04 07:13:25 51°19.09 2°48.402 295.7 14.4 286 14.8
2007-04-04 07:13:30 51°19.095 2°48.371 294.7 14.3 284 15
2007-04-04 07:13:35 51°19.101 2°48.34 293.4 14.4 286 15.5
2007-04-04 07:13:40 51°19.106 2°48.309 295.1 14.5 285 15.6
2007-04-04 07:13:45 51°19.112 2°48.279 294.8 14.5 288 15.7
2007-04-04 07:13:50 51°19.118 2°48.249 295.4 14.4 286 15.6
2007-04-04 07:13:55 51°19.124 2°48.219 296.2 14.3 288 15.9
2007-04-04 07:14:00 51°19.129 2°48.188 295.8 14.5 286 16
2007-04-04 07:14:05 51°19.135 2°48.157 295.2 14.6 285 15.9
2007-04-04 07:14:10 51°19.14 2°48.126 294.9 14.4 286 16.1
2007-04-04 07:14:15 51°19.146 2°48.096 295.1 14.3 288 16.6
2007-04-04 07:14:20 51°19.152 2°48.065 296.1 14.5 286 16.8
2007-04-04 07:14:25 51°19.158 2°48.035 295.2 14.5 287 16.6
2007-04-04 07:14:30 51°19.163 2°48.003 295.8 14.6 285 17
2007-04-04 07:14:35 51°19.169 2°47.973 296.1 14.4 287 17
2007-04-04 07:14:40 51°19.175 2°47.942 295.9 14.6 286 17.1
2007-04-04 07:14:45 51°19.181 2°47.911 296.1 14.6 287 17
2007-04-04 07:14:50 51°19.187 2°47.88 296.7 14.6 287 17.3
2007-04-04 07:14:55 51°19.193 2°47.85 296.3 14.4 289 17.3
2007-04-04 07:15:00 51°19.199 2°47.819 297.6 14.5 286 17.4
2007-04-04 07:15:05 51°19.204 2°47.788 295.8 14.6 287 17.7
2007-04-04 07:15:10 51°19.21 2°47.757 295.8 14.5 286 18
2007-04-04 07:15:15 51°19.216 2°47.727 296.8 14.6 285 18.5
2007-04-04 07:15:20 51°19.222 2°47.695 296.7 14.6 287 18.5
2007-04-04 07:15:25 51°19.227 2°47.664 295.7 14.6 286 18.3
2007-04-04 07:15:30 51°19.233 2°47.633 296.7 14.6 286 18.5
2007-04-04 07:15:35 51°19.239 2°47.602 296.1 14.8 286 19
2007-04-04 07:15:40 51°19.244 2°47.571 295.9 14.7 287 19
2007-04-04 07:15:45 51°19.25 2°47.54 296 14.5 285 19.2
2007-04-04 07:15:50 51°19.255 2°47.509 294.5 14.5 285 19.6
2007-04-04 07:15:55 51°19.261 2°47.479 296 14.6 285 19.7
2007-04-04 07:16:00 51°19.267 2°47.448 295.9 14.4 287 20
2007-04-04 07:16:05 51°19.272 2°47.416 296.8 14.7 284 19.8
2007-04-04 07:16:10 51°19.278 2°47.386 294.5 14.6 289 19.8
2007-04-04 07:16:15 51°19.283 2°47.354 297 14.6 284 19.9
2007-04-04 07:16:20 51°19.289 2°47.323 295.8 14.7 287 20
2007-04-04 07:16:25 51°19.295 2°47.292 296.3 14.7 286 19.7
2007-04-04 07:16:30 51°19.3 2°47.261 296.5 14.8 285 19.7
2007-04-04 07:16:35 51°19.307 2°47.23 295.7 14.7 289 19.7
2007-04-04 07:16:40 51°19.312 2°47.198 297.5 14.9 283 19.5
2007-04-04 07:16:45 51°19.318 2°47.167 296.6 14.8 287 19.9
2007-04-04 07:16:50 51°19.324 2°47.135 296.2 14.8 286 20.1
2007-04-04 07:16:55 51°19.33 2°47.104 296.1 14.6 287 20.1
2007-04-04 07:17:00 51°19.335 2°47.073 296.5 14.7 285 20
2007-04-04 07:17:05 51°19.341 2°47.042 296.1 14.7 285 20.3
2007-04-04 07:17:10 51°19.346 2°47.01 295.8 14.7 285 20.1
2007-04-04 07:17:15 51°19.352 2°46.98 295.3 14.7 283 20.2
2007-04-04 07:17:20 51°19.356 2°46.947 295.4 14.6 285 20.4
2007-04-04 07:17:25 51°19.362 2°46.917 295.5 14.4 286 19.8
2007-04-04 07:17:30 51°19.367 2°46.885 295.4 14.7 283 19.9
2007-04-04 07:17:35 51°19.372 2°46.854 294.1 14.8 285 19.8
2007-04-04 07:17:40 51°19.378 2°46.823 294.4 14.6 287 19.9
2007-04-04 07:17:45 51°19.383 2°46.791 296.5 14.7 285 19.8
2007-04-04 07:17:50 51°19.39 2°46.761 296.1 14.7 287 20
2007-04-04 07:17:55 51°19.394 2°46.729 295.4 14.6 287 19.9
2007-04-04 07:18:00 51°19.401 2°46.698 295.7 14.7 285 19.3
2007-04-04 07:18:05 51°19.406 2°46.666 294.6 14.8 288 19.6
2007-04-04 07:18:10 51°19.412 2°46.635 297.5 14.8 284 19.3
2007-04-04 07:18:15 51°19.418 2°46.604 296.6 14.5 290 19.7
2007-04-04 07:18:20 51°19.423 2°46.572 298 15 281 19.6
2007-04-04 07:18:25 51°19.43 2°46.542 295.3 14.5 290 19.1
2007-04-04 07:18:30 51°19.435 2°46.511 298.2 14.7 283 19.5
2007-04-04 07:18:35 51°19.442 2°46.48 296.6 14.6 292 19.3
2007-04-04 07:18:40 51°19.447 2°46.449 299.3 14.6 284 18.5
2007-04-04 07:18:45 51°19.452 2°46.418 296.1 14.7 285 17.6
2007-04-04 07:18:50 51°19.459 2°46.388 296.7 14.6 288 18.5
2007-04-04 07:18:55 51°19.465 2°46.356 297.6 14.6 288 18
2007-04-04 07:19:00 51°19.471 2°46.326 298 14.6 287 17.6
2007-04-04 07:19:05 51°19.478 2°46.295 296.9 14.7 290 18
2007-04-04 07:19:10 51°19.484 2°46.265 298.3 14.5 289 17.7
2007-04-04 07:19:15 51°19.489 2°46.233 298.8 14.4 284 17.2
2007-04-04 07:19:20 51°19.496 2°46.204 295.2 14.3 291 17.1
2007-04-04 07:19:25 51°19.5 2°46.172 297.3 14.4 284 16.7
2007-04-04 07:19:30 51°19.507 2°46.143 296.3 14.1 287 16.1
2007-04-04 07:19:35 51°19.511 2°46.111 294.8 14.5 284 15.8
2007-04-04 07:19:40 51°19.518 2°46.081 295.4 14.3 290 15.7
2007-04-04 07:19:45 51°19.523 2°46.05 296.8 14.4 283 14
2007-04-04 07:19:50 51°19.528 2°46.02 294.3 14.4 287 14.9
2007-04-04 07:19:55 51°19.534 2°45.99 295.4 14.4 285 14.6
2007-04-04 07:20:00 51°19.538 2°45.958 295.4 14.6 282 14.4
2007-04-04 07:20:05 51°19.545 2°45.928 293.7 14.2 289 13.7
2007-04-04 07:20:10 51°19.548 2°45.896 295.1 14.4 282 12
2007-04-04 07:20:15 51°19.554 2°45.866 292.6 14.4 287 14.3
2007-04-04 07:20:20 51°19.56 2°45.835 295.1 14.3 286 13.5
2007-04-04 07:20:25 51°19.565 2°45.804 294.6 14.5 286 12.5
2007-04-04 07:20:30 51°19.572 2°45.775 295.5 14.2 290 10.9
2007-04-04 07:20:35 51°19.576 2°45.743 297.2 14.6 283 11.6
2007-04-04 07:20:40 51°19.584 2°45.714 296.2 14.4 291 11.7
2007-04-04 07:20:45 51°19.589 2°45.683 297.2 14.3 287 11.6
2007-04-04 07:20:50 51°19.596 2°45.652 296 14.3 288 9.8
2007-04-04 07:20:55 51°19.601 2°45.621 296.9 14.4 285 11.5
2007-04-04 07:21:00 51°19.607 2°45.59 296.8 14.5 287 9.9
2007-04-04 07:21:05 51°19.613 2°45.561 296.1 14.1 287 11.5
2007-04-04 07:21:10 51°19.619 2°45.53 296.5 14.3 287 9.3
2007-04-04 07:21:15 51°19.625 2°45.499 296.1 14.6 287 10.9
2007-04-04 07:21:20 51°19.632 2°45.469 294.2 14.5 290 11.1
2007-04-04 07:21:25 51°19.638 2°45.438 298.2 14.5 288 10.6
2007-04-04 07:21:30 51°19.644 2°45.408 297.8 14.4 289 10
2007-04-04 07:21:35 51°19.649 2°45.377 297.7 14.5 284 11.1
2007-04-04 07:21:40 51°19.656 2°45.346 294.6 14.7 290 12.7
2007-04-04 07:21:45 51°19.662 2°45.316 297.3 14.5 287 14.3
2007-04-04 07:21:50 51°19.668 2°45.285 296.4 14.6 287 14.1
2007-04-04 07:21:55 51°19.673 2°45.253 296.1 14.8 285 13.2
2007-04-04 07:22:00 51°19.679 2°45.222 294.4 14.7 288 14.7
2007-04-04 07:22:05 51°19.685 2°45.191 296.2 14.6 285 15.2
2007-04-04 07:22:10 51°19.691 2°45.16 295.2 14.5 287 16.9
2007-04-04 07:22:15 51°19.697 2°45.129 296.1 14.5 287 17.6
2007-04-04 07:22:20 51°19.702 2°45.098 296.1 14.5 285 18.1
2007-04-04 07:22:25 51°19.707 2°45.067 295.3 14.6 284 19.1
2007-04-04 07:22:30 51°19.714 2°45.037 293.7 14.3 290 19.1
2007-04-04 07:22:35 51°19.72 2°45.007 297 14.4 286 19.6
2007-04-04 07:22:40 51°19.727 2°44.977 296.8 14.2 292 19.9
2007-04-04 07:22:45 51°19.732 2°44.947 298.8 14.2 285 19.9
2007-04-04 07:22:50 51°19.739 2°44.916 297 14.6 288 20
2007-04-04 07:22:55 51°19.744 2°44.886 295.8 14.3 287 19.6
2007-04-04 07:23:00 51°19.749 2°44.856 297 14.1 284 20
2007-04-04 07:23:05 51°19.756 2°44.826 294.9 14.2 290 20.4
2007-04-04 07:23:10 51°19.76 2°44.795 296.9 14.4 285 19.9
2007-04-04 07:23:15 51°19.767 2°44.765 294.9 14.2 288 19.9
2007-04-04 07:23:20 51°19.772 2°44.734 296 14.3 286 20.5
2007-04-04 07:23:25 51°19.778 2°44.704 295.2 14.4 287 20.8
2007-04-04 07:23:30 51°19.784 2°44.673 295.7 14.4 288 21.2
2007-04-04 07:23:35 51°19.79 2°44.642 297.1 14.7 288 21.5
2007-04-04 07:23:40 51°19.796 2°44.611 296.3 14.6 287 21.4
2007-04-04 07:23:45 51°19.802 2°44.581 296.4 14.5 287 21.4
2007-04-04 07:23:50 51°19.808 2°44.55 295.5 14.8 287 21.6
2007-04-04 07:23:55 51°19.814 2°44.518 296.2 14.8 288 21.8
2007-04-04 07:24:00 51°19.819 2°44.487 296 14.7 286 21.8
2007-04-04 07:24:05 51°19.825 2°44.457 296 14.4 288 22
2007-04-04 07:24:10 51°19.831 2°44.426 296.7 14.5 287 22.3
2007-04-04 07:24:15 51°19.838 2°44.396 296.8 14.5 287 22.4
2007-04-04 07:24:20 51°19.844 2°44.365 296.9 14.6 287 22.6
2007-04-04 07:24:25 51°19.85 2°44.334 296.8 14.7 287 22.6
2007-04-04 07:24:30 51°19.855 2°44.303 296.5 14.6 288 22.6
2007-04-04 07:24:35 51°19.861 2°44.272 297.5 14.6 282 22.7
2007-04-04 07:24:40 51°19.867 2°44.241 294.2 14.5 287 22.7
2007-04-04 07:24:45 51°19.872 2°44.21 295.4 14.6 287 22.7
2007-04-04 07:24:50 51°19.877 2°44.179 295.4 14.5 283 22.8
2007-04-04 07:24:55 51°19.883 2°44.149 295.1 14.4 287 23.3
2007-04-04 07:25:00 51°19.888 2°44.117 295.1 14.6 284 23.6
2007-04-04 07:25:05 51°19.895 2°44.087 296.1 14.5 288 23.8
2007-04-04 07:25:10 51°19.9 2°44.055 296.8 14.7 284 24.2
2007-04-04 07:25:15 51°19.906 2°44.025 296.1 14.6 287 24.3
2007-04-04 07:25:20 51°19.912 2°43.993 295.4 14.7 287 24.6
2007-04-04 07:25:25 51°19.918 2°43.962 295.8 14.7 287 24.5
2007-04-04 07:25:30 51°19.924 2°43.931 296.8 14.7 290 24.9
2007-04-04 07:25:35 51°19.928 2°43.899 297.3 14.9 282 24.6
2007-04-04 07:25:40 51°19.936 2°43.869 295.8 14.7 290 25
2007-04-04 07:25:45 51°19.941 2°43.837 295.9 14.6 287 24.9
2007-04-04 07:25:50 51°19.947 2°43.806 296.9 14.6 286 25.5
2007-04-04 07:25:55 51°19.953 2°43.774 295.2 14.8 288 25.2
2007-04-04 07:26:00 51°19.959 2°43.743 297.1 14.8 287 25.5
2007-04-04 07:26:05 51°19.965 2°43.712 296.8 14.9 287 25.3
2007-04-04 07:26:10 51°19.971 2°43.681 296.3 14.7 287 25.4
2007-04-04 07:26:15 51°19.978 2°43.651 297.8 14.6 289 25.8
2007-04-04 07:26:20 51°19.984 2°43.62 297 14.5 288 25.4
2007-04-04 07:26:25 51°19.989 2°43.589 298.3 14.6 284 25.3
2007-04-04 07:26:30 51°19.996 2°43.559 296.3 14.5 288 25.5
2007-04-04 07:26:35 51°20 2°43.527 295.7 14.6 288 25.7
2007-04-04 07:26:40 51°20.007 2°43.496 295.5 14.7 289 25.3
2007-04-04 07:26:45 51°20.012 2°43.464 296.9 14.7 285 25.3
2007-04-04 07:26:50 51°20.018 2°43.433 296.2 14.9 286 25.1
2007-04-04 07:26:55 51°20.024 2°43.401 295.3 14.8 287 24.8
2007-04-04 07:27:00 51°20.03 2°43.37 296.1 14.8 286 25
2007-04-04 07:27:05 51°20.036 2°43.339 296.5 14.8 287 24.8
2007-04-04 07:27:10 51°20.042 2°43.308 295.6 14.6 288 24.9
2007-04-04 07:27:15 51°20.048 2°43.277 297.3 14.6 288 24.9
2007-04-04 07:27:20 51°20.053 2°43.246 297.2 14.6 284 24.7
2007-04-04 07:27:25 51°20.058 2°43.215 295.8 14.6 285 24.9
2007-04-04 07:27:30 51°20.064 2°43.184 295.4 14.7 287 24.6
2007-04-04 07:27:35 51°20.069 2°43.152 295.4 14.9 284 24.9
2007-04-04 07:27:40 51°20.076 2°43.121 294.8 14.6 288 25.1
2007-04-04 07:27:45 51°20.08 2°43.089 296.9 14.8 283 25.1
2007-04-04 07:27:50 51°20.088 2°43.059 294.4 14.7 292 25.2
2007-04-04 07:27:55 51°20.091 2°43.027 296.8 14.8 281 24.8
2007-04-04 07:28:00 51°20.098 2°42.996 295.2 14.6 287 24.8
2007-04-04 07:28:05 51°20.103 2°42.965 295.6 14.7 285 24.7
2007-04-04 07:28:10 51°20.108 2°42.933 295.4 14.7 284 24.5
2007-04-04 07:28:15 51°20.115 2°42.903 295 14.5 288 24
2007-04-04 07:28:20 51°20.119 2°42.871 296.1 14.6 284 23.7
2007-04-04 07:28:25 51°20.125 2°42.84 296.7 14.7 286 23.6
2007-04-04 07:28:30 51°20.131 2°42.81 295.6 14.6 288 23.8
2007-04-04 07:28:35 51°20.137 2°42.778 297.2 14.7 286 23.8
2007-04-04 07:28:40 51°20.144 2°42.748 297 14.3 290 24
2007-04-04 07:28:45 51°20.148 2°42.717 297.7 14.5 283 23.9
2007-04-04 07:28:50 51°20.155 2°42.687 295.7 14.3 290 23.5
2007-04-04 07:28:55 51°20.16 2°42.656 297.4 14.5 284 23.4
2007-04-04 07:29:00 51°20.166 2°42.625 296.1 14.4 288 22.7
2007-04-04 07:29:05 51°20.171 2°42.594 296.1 14.6 284 20.8
2007-04-04 07:29:10 51°20.177 2°42.562 294.9 14.6 288 22.5
2007-04-04 07:29:15 51°20.182 2°42.531 297 14.8 282 22.8
2007-04-04 07:29:20 51°20.189 2°42.5 295.3 15 290 22.9
2007-04-04 07:29:25 51°20.196 2°42.471 299.3 14.2 293 22.3
2007-04-04 07:29:30 51°20.202 2°42.44 301.2 14.7 287 21.1
2007-04-04 07:29:35 51°20.21 2°42.41 298.5 14.4 295 21.2
2007-04-04 07:29:40 51°20.215 2°42.379 300.9 14.4 285 21.2
2007-04-04 07:29:45 51°20.221 2°42.348 296.8 14.7 289 20.5
2007-04-04 07:29:50 51°20.229 2°42.32 299.5 14 290 20.9
2007-04-04 07:29:55 51°20.234 2°42.288 298.6 14.5 286 20.9
2007-04-04 07:30:00 51°20.241 2°42.259 296.8 14.3 291 20
2007-04-04 07:30:05 51°20.246 2°42.227 299.2 14.6 282 19.1
2007-04-04 07:30:10 51°20.253 2°42.197 294.7 14.6 292 17.5
2007-04-04 07:30:15 51°20.257 2°42.165 297.1 14.8 283 15.7
2007-04-04 07:30:20 51°20.264 2°42.135 295.7 14.5 288 18.8
2007-04-04 07:30:25 51°20.27 2°42.105 296.2 14.4 288 19.4
2007-04-04 07:30:30 51°20.274 2°42.073 296.8 14.4 284 16.5
2007-04-04 07:30:35 51°20.279 2°42.043 296.4 14.4 285 16.8
2007-04-04 07:30:40 51°20.285 2°42.012 293.9 14.2 288 17
2007-04-04 07:30:45 51°20.29 2°41.981 295.9 14.5 284 17.3
2007-04-04 07:30:50 51°20.297 2°41.951 294.7 14.2 290 16
2007-04-04 07:30:55 51°20.302 2°41.92 296.5 14.5 283 16.2
2007-04-04 07:31:00 51°20.307 2°41.889 293.8 14.5 287 14.9
2007-04-04 07:31:05 51°20.314 2°41.859 297.1 14.4 288 16.9
2007-04-04 07:31:10 51°20.32 2°41.828 297.5 14.5 286 17.2
2007-04-04 07:31:15 51°20.326 2°41.796 295.3 14.7 289 17.6
2007-04-04 07:31:20 51°20.331 2°41.766 296.2 14.4 286 16.8
2007-04-04 07:31:25 51°20.337 2°41.735 296.8 14.6 286 18
2007-04-04 07:31:30 51°20.344 2°41.703 294.3 14.9 289 19.5
2007-04-04 07:31:35 51°20.35 2°41.672 297.5 14.6 289 19.3
2007-04-04 07:31:40 51°20.356 2°41.64 298.1 14.9 285 19.1
2007-04-04 07:31:45 51°20.363 2°41.61 295.3 14.7 291 20.1
2007-04-04 07:31:50 51°20.369 2°41.578 299.2 14.8 284 20
2007-04-04 07:31:55 51°20.375 2°41.547 295.8 14.8 291 20.4
2007-04-04 07:32:00 51°20.382 2°41.517 298.6 14.7 286 20.3
2007-04-04 07:32:05 51°20.387 2°41.485 296.2 14.7 287 19.9
2007-04-04 07:32:10 51°20.391 2°41.452 296.6 15.2 282 18.5
2007-04-04 07:32:15 51°20.398 2°41.421 291.8 14.7 289 17.8
2007-04-04 07:32:20 51°20.404 2°41.391 297.1 14.5 287 18.8
2007-04-04 07:32:25 51°20.41 2°41.36 295.4 14.5 289 19.2
2007-04-04 07:32:30 51°20.415 2°41.33 297.7 14.5 286 19.1
2007-04-04 07:32:35 51°20.422 2°41.299 295.9 14.5 289 19.8
2007-04-04 07:32:40 51°20.428 2°41.268 297.3 14.7 286 20.1
2007-04-04 07:32:45 51°20.434 2°41.237 295.7 14.6 290 20.5
2007-04-04 07:32:50 51°20.44 2°41.205 297.3 14.9 285 21.8
2007-04-04 07:32:55 51°20.447 2°41.175 294.9 14.7 292 23.2
2007-04-04 07:33:00 51°20.452 2°41.143 297 14.7 284 24
2007-04-04 07:33:05 51°20.459 2°41.113 295.7 14.6 288 25.4
2007-04-04 07:33:10 51°20.463 2°41.081 295.1 14.7 285 25.5
2007-04-04 07:33:15 51°20.469 2°41.049 294.7 14.8 286 26
2007-04-04 07:33:20 51°20.476 2°41.019 295.9 14.7 288 26.5
2007-04-04 07:33:25 51°20.481 2°40.986 296.6 14.9 287 26.3
2007-04-04 07:33:30 51°20.489 2°40.956 295.8 14.6 290 26.3
2007-04-04 07:33:35 51°20.494 2°40.925 297.2 14.9 288 26.7
2007-04-04 07:33:40 51°20.501 2°40.894 297.3 14.6 289 26.8
2007-04-04 07:33:45 51°20.507 2°40.863 296.9 14.8 286 26.5
2007-04-04 07:33:50 51°20.513 2°40.832 296.1 14.8 288 26.4
2007-04-04 07:33:55 51°20.519 2°40.801 297.6 14.8 285 26.1
2007-04-04 07:34:00 51°20.525 2°40.77 295.2 14.8 287 26
2007-04-04 07:34:05 51°20.531 2°40.738 295.5 14.8 286 25.8
2007-04-04 07:34:10 51°20.537 2°40.708 295.1 14.6 288 26
2007-04-04 07:34:15 51°20.544 2°40.677 296.4 14.6 289 26.2
2007-04-04 07:34:20 51°20.55 2°40.646 296.6 14.5 289 26.1
2007-04-04 07:34:25 51°20.555 2°40.615 297.8 14.6 285 26
2007-04-04 07:34:30 51°20.561 2°40.584 295.6 14.6 287 25.7
2007-04-04 07:34:35 51°20.567 2°40.553 295.4 14.7 287 25.5
2007-04-04 07:34:40 51°20.573 2°40.522 296.2 14.4 287 25.6
2007-04-04 07:34:45 51°20.578 2°40.491 296.5 14.7 283 25.9
2007-04-04 07:34:50 51°20.585 2°40.46 293.4 14.7 291 25.4
2007-04-04 07:34:55 51°20.589 2°40.428 296.9 14.9 283 25
2007-04-04 07:35:00 51°20.596 2°40.398 293.7 14.7 288 24.8
2007-04-04 07:35:05 51°20.601 2°40.366 295 14.4 287 24.6
2007-04-04 07:35:10 51°20.607 2°40.335 296.3 14.7 285 25.1
2007-04-04 07:35:15 51°20.614 2°40.306 295.5 14.4 290 25.1
2007-04-04 07:35:20 51°20.618 2°40.274 297.8 14.7 283 24.9
2007-04-04 07:35:25 51°20.625 2°40.243 294.7 14.6 289 24.9
2007-04-04 07:35:30 51°20.631 2°40.212 296.2 14.7 286 25.1
2007-04-04 07:35:35 51°20.639 2°40.183 296.1 14.4 294 25.2
2007-04-04 07:35:40 51°20.646 2°40.153 300.4 14.6 294 25
2007-04-04 07:35:45 51°20.658 2°40.127 303.7 14.2 302 25.6
2007-04-04 07:35:50 51°20.667 2°40.1 309 14.3 302 26
2007-04-04 07:35:55 51°20.679 2°40.075 313.2 14 307 26.1
2007-04-04 07:36:00 51°20.691 2°40.05 315.5 14.1 307 26
2007-04-04 07:36:05 51°20.704 2°40.027 317.4 13.9 313 26
2007-04-04 07:36:10 51°20.717 2°40.005 322.2 13.8 313 25.9
2007-04-04 07:36:15 51°20.731 2°39.985 325.3 13.7 320 25.8
2007-04-04 07:36:20 51°20.746 2°39.965 329.1 13.7 320 25.6
2007-04-04 07:36:25 51°20.76 2°39.947 331.3 13.5 322 24.9
2007-04-04 07:36:30 51°20.774 2°39.927 334 13.4 320 24.7
2007-04-04 07:36:35 51°20.79 2°39.911 333.8 13.3 327 24.6
2007-04-04 07:36:40 51°20.805 2°39.896 337.6 13.2 331 24.3
2007-04-04 07:36:45 51°20.821 2°39.882 341.8 13.1 333 24
2007-04-04 07:36:50 51°20.838 2°39.871 344.4 12.9 337 24.4
2007-04-04 07:36:55 51°20.854 2°39.863 348.5 12.8 341 25
2007-04-04 07:37:00 51°20.871 2°39.855 353.7 12.5 345 25
2007-04-04 07:37:05 51°20.889 2°39.85 357 12.4 348 25.2
2007-04-04 07:37:10 51°20.906 2°39.845 0.5 12.6 350 25.4
2007-04-04 07:37:15 51°20.923 2°39.843 2.7 12.2 356 25
2007-04-04 07:37:20 51°20.94 2°39.842 6.7 12.2 357 24.9
2007-04-04 07:37:25 51°20.956 2°39.841 9.4 11.9 358 23.4
2007-04-04 07:37:30 51°20.972 2°39.842 11.6 12 -999 22.7
2007-04-04 07:37:35 51°20.989 2°39.843 13.1 11.9 2 23.6
2007-04-04 07:37:40 51°21.005 2°39.845 14.5 11.9 3 24.1
2007-04-04 07:37:45 51°21.022 2°39.846 15.6 11.9 4 25
2007-04-04 07:37:50 51°21.038 2°39.848 16.5 11.9 5 24.8
2007-04-04 07:37:55 51°21.054 2°39.849 17.2 11.6 5 24.5
2007-04-04 07:38:00 51°21.071 2°39.851 17.4 11.7 4 24.6
2007-04-04 07:38:05 51°21.087 2°39.853 17.1 11.7 4 24.9
2007-04-04 07:38:10 51°21.103 2°39.855 17.3 11.8 5 24.7
2007-04-04 07:38:15 51°21.119 2°39.857 16.8 11.4 3 24.8
2007-04-04 07:38:20 51°21.134 2°39.858 16.4 10.9 2 24.9
2007-04-04 07:38:25 51°21.15 2°39.859 15.8 10.9 1 24.8
2007-04-04 07:38:30 51°21.164 2°39.859 14.5 10.9 359 24.3
2007-04-04 07:38:35 51°21.179 2°39.859 13.7 10.4 1 -999
2007-04-04 07:38:40 51°21.193 2°39.86 14.1 10.6 2 -999
2007-04-04 07:38:45 51°21.208 2°39.86 14.1 10.8 1 23.6
2007-04-04 07:38:50 51°21.224 2°39.861 14.4 11.1 2 24.5
2007-04-04 07:38:55 51°21.24 2°39.861 14.2 11.5 359 24.6
2007-04-04 07:39:00 51°21.256 2°39.861 13.3 11.6 1 24.5
2007-04-04 07:39:05 51°21.272 2°39.861 13 11.7 -999 25
2007-04-04 07:39:10 51°21.289 2°39.861 13.1 11.9 -999 25.4
2007-04-04 07:39:15 51°21.305 2°39.862 12.7 11.7 1 24.9
2007-04-04 07:39:20 51°21.321 2°39.863 12.7 11.8 1 24.6
2007-04-04 07:39:25 51°21.337 2°39.863 13.3 11.6 -999 23.7
2007-04-04 07:39:30 51°21.353 2°39.862 13 11.4 358 25.1
2007-04-04 07:39:35 51°21.369 2°39.861 12.2 11.7 -999 25.2
2007-04-04 07:39:40 51°21.386 2°39.86 11.8 11.9 358 25.3
2007-04-04 07:39:45 51°21.402 2°39.86 11.4 11.9 359 25.4
2007-04-04 07:39:50 51°21.419 2°39.859 11.6 12.1 359 25.3
2007-04-04 07:39:55 51°21.436 2°39.858 11.2 11.8 358 25.2
2007-04-04 07:40:00 51°21.452 2°39.857 11.6 11.7 359 25.6
2007-04-04 07:40:05 51°21.469 2°39.856 11.3 11.8 358 25.1
2007-04-04 07:40:10 51°21.486 2°39.856 11.5 12.1 -999 24.9
2007-04-04 07:40:15 51°21.503 2°39.856 11.4 12.1 -999 24.9
2007-04-04 07:40:20 51°21.519 2°39.856 11.7 12.2 -999 25.1
2007-04-04 07:40:25 51°21.536 2°39.856 11.7 12.4 -999 25.2
2007-04-04 07:40:30 51°21.553 2°39.857 12.3 12 -999 24.9
2007-04-04 07:40:35 51°21.57 2°39.856 12 12 359 25.3
2007-04-04 07:40:40 51°21.587 2°39.856 10.9 12.2 -999 24.9
2007-04-04 07:40:45 51°21.603 2°39.855 11.6 11.5 359 24.7
2007-04-04 07:40:50 51°21.618 2°39.855 11.4 11.1 359 -999
2007-04-04 07:40:55 51°21.634 2°39.855 11.3 11.3 359 25.4
2007-04-04 07:41:00 51°21.65 2°39.854 11.6 11.6 358 25.2
2007-04-04 07:41:05 51°21.666 2°39.853 10.6 11.2 359 25.5
2007-04-04 07:41:10 51°21.681 2°39.851 11.1 11.3 356 25.8
2007-04-04 07:41:15 51°21.696 2°39.85 10.2 11.3 357 25.7
2007-04-04 07:41:20 51°21.712 2°39.849 9.9 11.5 356 25.5
2007-04-04 07:41:25 51°21.728 2°39.848 10.1 11.8 358 26.1
2007-04-04 07:41:30 51°21.744 2°39.846 10.4 11.9 357 25.9
2007-04-04 07:41:35 51°21.761 2°39.845 9.8 11.9 358 26.4
2007-04-04 07:41:40 51°21.777 2°39.844 9.6 11.9 358 26.1
2007-04-04 07:41:45 51°21.795 2°39.843 10.7 11.8 357 25.7
2007-04-04 07:41:50 51°21.811 2°39.843 10.1 11.5 359 26.1
2007-04-04 07:41:55 51°21.827 2°39.841 10.8 11.5 358 26.3
2007-04-04 07:42:00 51°21.843 2°39.84 11 11.5 358 26.6
2007-04-04 07:42:05 51°21.859 2°39.84 10.2 11.7 357 26.9
2007-04-04 07:42:10 51°21.875 2°39.838 11.2 11.8 358 26.6
2007-04-04 07:42:15 51°21.892 2°39.837 10.2 11.6 358 26.7
2007-04-04 07:42:20 51°21.907 2°39.835 10.5 11.6 355 26.5
2007-04-04 07:42:25 51°21.923 2°39.835 10.1 11.6 358 26.3
2007-04-04 07:42:30 51°21.939 2°39.833 9.7 11.7 357 26.1
2007-04-04 07:42:35 51°21.956 2°39.832 10.2 11.8 358 26.3
2007-04-04 07:42:40 51°21.973 2°39.831 10.5 12 357 26.5
2007-04-04 07:42:45 51°21.989 2°39.83 9.9 12 357 26.5
2007-04-04 07:42:50 51°22.005 2°39.829 9.7 11.6 358 26.9
2007-04-04 07:42:55 51°22.021 2°39.828 10.6 11.9 357 27.1
2007-04-04 07:43:00 51°22.038 2°39.826 9.8 11.5 357 27.3
2007-04-04 07:43:05 51°22.053 2°39.825 10.4 11.3 357 28.1
2007-04-04 07:43:10 51°22.069 2°39.824 9.8 11.3 357 27.7
2007-04-04 07:43:15 51°22.084 2°39.822 9.6 11.2 358 26.6
2007-04-04 07:43:20 51°22.101 2°39.821 10.9 11.7 357 27
2007-04-04 07:43:25 51°22.117 2°39.819 10.4 11.8 356 27.2
2007-04-04 07:43:30 51°22.133 2°39.819 10 11.6 359 27
2007-04-04 07:43:35 51°22.149 2°39.816 10.1 11.4 356 -999
2007-04-04 07:43:40 51°22.165 2°39.814 9.6 11.3 357 26.1
2007-04-04 07:43:45 51°22.18 2°39.813 11.5 11.4 356 -999
2007-04-04 07:43:50 51°22.196 2°39.81 10.7 11.5 354 27.3
2007-04-04 07:43:55 51°22.212 2°39.808 9.1 11.5 352 27.9
2007-04-04 07:44:00 51°22.228 2°39.801 5.3 11.9 347 28.4
2007-04-04 07:44:05 51°22.245 2°39.793 1.4 12.3 342 27.3
2007-04-04 07:44:10 51°22.26 2°39.784 358.5 11.9 338 27.5
2007-04-04 07:44:15 51°22.275 2°39.77 354.7 12.1 330 4.3
2007-04-04 07:44:20 51°22.29 2°39.755 345 12.5 329 4.6
2007-04-04 07:44:25 51°22.305 2°39.74 343.7 12.6 328 27.1
2007-04-04 07:44:30 51°22.319 2°39.724 342.9 12.7 323 27.2
2007-04-04 07:44:35 51°22.332 2°39.704 337.6 13.1 318 27.5
2007-04-04 07:44:40 51°22.344 2°39.683 333.1 13.4 312 27.2
2007-04-04 07:44:45 51°22.356 2°39.66 327.4 13.4 310 26.9
2007-04-04 07:44:50 51°22.368 2°39.638 324.7 13.4 308 27.2
2007-04-04 07:44:55 51°22.378 2°39.613 321.1 13.8 301 27.3
2007-04-04 07:45:00 51°22.387 2°39.585 315.2 13.8 299 27.4
2007-04-04 07:45:05 51°22.396 2°39.558 312 13.9 296 27.5
2007-04-04 07:45:10 51°22.404 2°39.528 307.7 14.3 292 27.3
2007-04-04 07:45:15 51°22.409 2°39.498 302.4 14.3 286 26.9
2007-04-04 07:45:20 51°22.415 2°39.468 298.7 14 287 27.3
2007-04-04 07:45:25 51°22.42 2°39.437 296.6 14.3 283 27.5
2007-04-04 07:45:30 51°22.423 2°39.406 293.2 14.4 280 27.5
2007-04-04 07:45:35 51°22.426 2°39.374 289.6 14.7 276 27.3
2007-04-04 07:45:40 51°22.428 2°39.341 286.1 14.5 278 28.1
2007-04-04 07:45:45 51°22.43 2°39.309 284.7 14.8 275 28.3
2007-04-04 07:45:50 51°22.432 2°39.276 284.2 14.9 275 28.3
2007-04-04 07:45:55 51°22.434 2°39.244 283.8 14.6 274 28.7
2007-04-04 07:46:00 51°22.436 2°39.212 282.8 14.7 278 28.9
2007-04-04 07:46:05 51°22.438 2°39.18 284.2 14.8 277 28.8
2007-04-04 07:46:10 51°22.443 2°39.149 286.3 14.2 284 28.3
2007-04-04 07:46:15 51°22.445 2°39.117 288.6 14.6 276 28.5
2007-04-04 07:46:20 51°22.451 2°39.086 288.1 14.4 285 28.5
2007-04-04 07:46:25 51°22.452 2°39.053 289.8 14.8 277 28.3
2007-04-04 07:46:30 51°22.458 2°39.022 287.4 14.6 286 28.4
2007-04-04 07:46:35 51°22.462 2°38.991 292.3 14.4 278 28.7
2007-04-04 07:46:40 51°22.466 2°38.959 290.8 14.8 281 28.1
2007-04-04 07:46:45 51°22.471 2°38.928 291.9 14.4 285 28.7
2007-04-04 07:46:50 51°22.474 2°38.896 293.2 14.8 279 28.9
2007-04-04 07:46:55 51°22.479 2°38.864 288.8 14.5 288 28.4
2007-04-04 07:47:00 51°22.483 2°38.833 293.9 14.4 278 28.6
2007-04-04 07:47:05 51°22.487 2°38.8 290 14.8 283 28.2
2007-04-04 07:47:10 51°22.492 2°38.769 289.5 14.5 285 27.4
2007-04-04 07:47:15 51°22.494 2°38.736 292 14.9 281 26.6
2007-04-04 07:47:20 51°22.502 2°38.706 290.8 14.7 289 27.7
2007-04-04 07:47:25 51°22.505 2°38.674 293.9 14.7 282 28.3
2007-04-04 07:47:30 51°22.51 2°38.642 292.5 14.7 286 28.1
2007-04-04 07:47:35 51°22.518 2°38.612 294.9 14.7 286 28.2
2007-04-04 07:47:40 51°22.523 2°38.58 296.7 14.8 286 28.4
2007-04-04 07:47:45 51°22.53 2°38.55 297.3 14.6 290 28.4
2007-04-04 07:47:50 51°22.535 2°38.518 297.2 14.8 285 28.7
2007-04-04 07:47:55 51°22.542 2°38.488 297 14.6 289 28.8
2007-04-04 07:48:00 51°22.548 2°38.457 298.5 14.7 287 29.2
2007-04-04 07:48:05 51°22.555 2°38.426 298.1 14.7 290 28.6
2007-04-04 07:48:10 51°22.562 2°38.397 297.8 14.4 291 28.4
2007-04-04 07:48:15 51°22.567 2°38.365 299.7 15 286 28.4
2007-04-04 07:48:20 51°22.577 2°38.336 299.2 14.5 296 29.1
2007-04-04 07:48:25 51°22.583 2°38.305 303.1 14.7 288 29.4
2007-04-04 07:48:30 51°22.592 2°38.276 302.1 14.6 295 28.7
2007-04-04 07:48:35 51°22.598 2°38.244 302.9 14.9 288 28.1
2007-04-04 07:48:40 51°22.607 2°38.216 302.4 14.4 296 27.8
2007-04-04 07:48:45 51°22.615 2°38.188 304.6 14.2 294 28.3
2007-04-04 07:48:50 51°22.623 2°38.158 304.8 14.5 294 28.5
2007-04-04 07:48:55 51°22.631 2°38.128 304.1 14.5 292 28
2007-04-04 07:49:00 51°22.639 2°38.099 303.9 14.4 294 27.9
2007-04-04 07:49:05 51°22.647 2°38.07 304.8 14.5 294 27.4
2007-04-04 07:49:10 51°22.655 2°38.039 304.2 15 292 27.5
2007-04-04 07:49:15 51°22.663 2°38.009 303 14.5 294 27.5
2007-04-04 07:49:20 51°22.672 2°37.98 305.5 14.6 294 27.9
2007-04-04 07:49:25 51°22.678 2°37.949 304.8 14.8 290 27.3
2007-04-04 07:49:30 51°22.687 2°37.921 304.2 14.4 295 28
2007-04-04 07:49:35 51°22.694 2°37.89 304.6 14.6 293 28.5
2007-04-04 07:49:40 51°22.704 2°37.863 304.8 14.2 298 28.8
2007-04-04 07:49:45 51°22.71 2°37.832 306.4 14.7 288 28.6
2007-04-04 07:49:50 51°22.72 2°37.803 302.1 14.6 299 28.8
2007-04-04 07:49:55 51°22.728 2°37.773 305.2 14.7 289 28.2
2007-04-04 07:50:00 51°22.736 2°37.744 304.5 14.2 298 27.8
2007-04-04 07:50:05 51°22.743 2°37.713 304.3 14.6 292 27.4
2007-04-04 07:50:10 51°22.752 2°37.684 302.8 14.5 296 27.4
2007-04-04 07:50:15 51°22.759 2°37.654 305.2 14.6 289 27.7
2007-04-04 07:50:20 51°22.768 2°37.625 302.9 14.4 298 27.9
2007-04-04 07:50:25 51°22.777 2°37.598 306.2 14.3 296 28.2
2007-04-04 07:50:30 51°22.784 2°37.567 307.6 14.5 292 28
2007-04-04 07:50:35 51°22.794 2°37.541 304 14 298 28.5
2007-04-04 07:50:40 51°22.8 2°37.51 306.4 14.4 290 28.7
2007-04-04 07:50:45 51°22.81 2°37.483 304.1 14.1 298 28.4
2007-04-04 07:50:50 51°22.816 2°37.452 305.9 14.6 289 25.3
2007-04-04 07:50:55 51°22.826 2°37.425 303.5 13.9 295 26.9
2007-04-04 07:51:00 51°22.831 2°37.394 304.1 14.4 288 27.2
2007-04-04 07:51:05 51°22.839 2°37.365 301.3 14.2 296 26.5
2007-04-04 07:51:10 51°22.846 2°37.335 304.2 14.4 289 26.5
2007-04-04 07:51:15 51°22.854 2°37.306 303.1 14.3 293 26.3
2007-04-04 07:51:20 51°22.861 2°37.276 302.6 14.5 290 26.7
2007-04-04 07:51:25 51°22.869 2°37.247 301.9 14.5 295 26.6
2007-04-04 07:51:30 51°22.876 2°37.217 303.4 14.1 288 26.5
2007-04-04 07:51:35 51°22.883 2°37.189 301.7 13.9 297 26.5
2007-04-04 07:51:40 51°22.89 2°37.159 303.4 14.5 289 26.2
2007-04-04 07:51:45 51°22.899 2°37.13 301.8 14.5 296 25.7
2007-04-04 07:51:50 51°22.906 2°37.101 303.4 14.4 291 26.1
2007-04-04 07:51:55 51°22.914 2°37.072 303.8 14.3 293 26.5
2007-04-04 07:52:00 51°22.921 2°37.042 303.3 14.8 291 26.8
2007-04-04 07:52:05 51°22.931 2°37.014 303.1 14.1 298 27.2
2007-04-04 07:52:10 51°22.935 2°36.982 305.2 14.8 284 26.6
2007-04-04 07:52:15 51°22.946 2°36.956 300.9 14 298 27
2007-04-04 07:52:20 51°22.951 2°36.925 304.9 14.6 290 26.8
2007-04-04 07:52:25 51°22.96 2°36.896 302.6 14.4 295 27.1
2007-04-04 07:52:30 51°22.968 2°36.868 305.3 14 292 26.5
2007-04-04 07:52:35 51°22.974 2°36.837 302.9 14.4 288 25.7
2007-04-04 07:52:40 51°22.983 2°36.809 301 14.1 295 26
2007-04-04 07:52:45 51°22.989 2°36.778 303.1 14.7 289 25.9
2007-04-04 07:52:50 51°22.998 2°36.75 303.4 14.4 295 24.6
2007-04-04 07:52:55 51°23.003 2°36.717 303.2 15 286 23.7
2007-04-04 07:53:00 51°23.014 2°36.691 300.7 14.3 300 23.8
2007-04-04 07:53:05 51°23.02 2°36.659 305.3 14 292 24
2007-04-04 07:53:10 51°23.029 2°36.633 305.5 14.2 290 -999
2007-04-04 07:53:15 51°23.035 2°36.602 305.8 14 297 22.1